Time;durP1;ratioP1;P1;durP2;ratioP2;P2;SDS_P1;SDS_P2;PMS_P1;PMS_P2;Temp;Humidity;BMP_temperature;BMP_pressure;BME280_temperature;BME280_humidity;BME280_pressure;Samples;Min_cycle;Max_cycle;Signal;HPM_P1;HPM_P2
2022/03/03 00:00:13;;;;;;;98.00;45.05;;;2.30;99.90;;;;;;6273300;22;20015;-80
2022/03/03 00:02:39;;;;;;;76.38;36.03;;;2.40;99.90;;;;;;6273457;22;20051;-80
2022/03/03 00:05:06;;;;;;;98.65;47.38;;;2.50;99.90;;;;;;6272457;22;20015;-79
2022/03/03 00:07:32;;;;;;;99.85;45.03;;;2.50;99.90;;;;;;6274794;22;20455;-79
2022/03/03 00:09:57;;;;;;;89.53;39.88;;;2.50;99.90;;;;;;6223191;22;20018;-79
2022/03/03 00:12:23;;;;;;;101.53;46.30;;;2.50;99.90;;;;;;6248480;22;20027;-79
2022/03/03 00:14:49;;;;;;;99.13;46.78;;;2.50;99.90;;;;;;6272138;22;20678;-80
2022/03/03 00:17:14;;;;;;;99.93;45.45;;;2.40;99.90;;;;;;6273346;22;20521;-80
2022/03/03 00:19:41;;;;;;;95.03;45.05;;;2.40;99.90;;;;;;6273772;22;20015;-81
2022/03/03 00:22:06;;;;;;;94.38;45.33;;;2.40;99.90;;;;;;6273536;22;20061;-78
2022/03/03 00:24:32;;;;;;;96.97;47.58;;;2.30;99.90;;;;;;6249593;22;20059;-80
2022/03/03 00:26:58;;;;;;;92.40;45.45;;;2.40;99.90;;;;;;6249887;22;20424;-81
2022/03/03 00:29:23;;;;;;;98.95;46.97;;;2.40;99.90;;;;;;6271796;22;20110;-78
2022/03/03 00:31:49;;;;;;;98.40;46.40;;;2.40;99.90;;;;;;6277014;22;20003;-80
2022/03/03 00:34:15;;;;;;;94.32;44.45;;;2.60;99.90;;;;;;6278639;22;20015;-80
2022/03/03 00:36:42;;;;;;;96.43;43.33;;;2.20;99.90;;;;;;6278938;22;20103;-80
2022/03/03 00:39:07;;;;;;;94.10;43.60;;;2.20;99.90;;;;;;6252511;22;20373;-82
2022/03/03 00:41:33;;;;;;;90.38;45.10;;;2.20;99.90;;;;;;6252746;22;20038;-80
2022/03/03 00:43:59;;;;;;;94.05;45.00;;;2.50;99.90;;;;;;6277963;22;20010;-79
2022/03/03 00:46:27;;;;;;;87.55;43.80;;;2.30;99.90;;;;;;6253091;22;20015;-79
2022/03/03 00:48:56;;;;;;;86.28;44.10;;;2.10;99.90;;;;;;6251407;22;20422;-79
2022/03/03 00:51:22;;;;;;;95.43;44.35;;;2.00;99.90;;;;;;6252661;22;20363;-80
2022/03/03 00:53:49;;;;;;;92.63;46.30;;;2.00;99.90;;;;;;6252306;22;20007;-80
2022/03/03 00:56:15;;;;;;;94.53;46.03;;;2.00;99.90;;;;;;6277987;22;20019;-79
2022/03/03 00:58:41;;;;;;;95.82;45.35;;;1.90;99.90;;;;;;6250674;22;20026;-81
2022/03/03 01:01:07;;;;;;;91.57;45.90;;;1.80;99.90;;;;;;6305328;22;20106;-78
2022/03/03 01:03:33;;;;;;;97.43;47.22;;;2.40;99.90;;;;;;6276308;22;20015;-78
2022/03/03 01:05:58;;;;;;;90.45;45.42;;;1.80;99.90;;;;;;6248694;22;20521;-81
2022/03/03 01:08:24;;;;;;;94.60;45.08;;;1.80;99.90;;;;;;6249155;22;20086;-78
2022/03/03 01:10:50;;;;;;;91.47;45.78;;;1.70;99.90;;;;;;6276785;22;20086;-81
2022/03/03 01:13:16;;;;;;;96.40;46.55;;;1.70;99.90;;;;;;6275998;22;20019;-79
2022/03/03 01:15:43;;;;;;;92.80;46.88;;;1.60;99.90;;;;;;6275452;22;20288;-79
2022/03/03 01:18:09;;;;;;;93.07;43.90;;;1.60;99.90;;;;;;6276481;22;20511;-79
2022/03/03 01:20:34;;;;;;;97.35;46.65;;;1.50;99.90;;;;;;6275814;22;20023;-79
2022/03/03 01:23:00;;;;;;;92.43;44.50;;;1.50;99.90;;;;;;6275420;22;20389;-78
2022/03/03 01:25:26;;;;;;;92.47;44.53;;;1.40;99.90;;;;;;6276119;22;20022;-79
2022/03/03 01:27:52;;;;;;;90.75;45.35;;;1.50;99.90;;;;;;6250483;22;20026;-78
2022/03/03 01:30:18;;;;;;;94.40;45.38;;;1.50;99.90;;;;;;6274963;22;20015;-81
2022/03/03 01:32:43;;;;;;;85.70;43.92;;;1.40;99.90;;;;;;6276648;22;20046;-81
2022/03/03 01:35:09;;;;;;;86.65;43.85;;;1.30;99.90;;;;;;6275847;22;20065;-78
2022/03/03 01:37:35;;;;;;;88.32;43.92;;;1.20;99.90;;;;;;6224779;22;20026;-79
2022/03/03 01:40:01;;;;;;;90.90;43.10;;;1.20;99.90;;;;;;6249678;22;20094;-78
2022/03/03 01:42:26;;;;;;;90.85;44.90;;;1.20;99.90;;;;;;6274143;22;20021;-82
2022/03/03 01:44:52;;;;;;;89.43;44.22;;;1.20;99.90;;;;;;6249802;22;20051;-81
2022/03/03 01:47:24;;;;;;;91.45;43.40;;;1.10;99.90;;;;;;6276733;22;20380;-80
2022/03/03 01:49:53;;;;;;;87.20;43.25;;;1.00;99.90;;;;;;6275756;22;20015;-81
2022/03/03 01:52:19;;;;;;;91.25;44.42;;;0.90;99.90;;;;;;6251994;22;20041;-81
2022/03/03 01:54:46;;;;;;;84.90;43.88;;;0.90;99.90;;;;;;6250450;22;20062;-80
2022/03/03 01:57:11;;;;;;;86.55;43.22;;;0.90;99.90;;;;;;6250482;22;20070;-79
2022/03/03 01:59:38;;;;;;;93.57;43.95;;;0.80;99.90;;;;;;6276150;22;20453;-80
2022/03/03 02:02:07;;;;;;;89.45;44.00;;;0.90;99.90;;;;;;6276476;22;20097;-79
2022/03/03 02:04:33;;;;;;;83.85;41.90;;;1.20;99.90;;;;;;6276012;22;20015;-79
2022/03/03 02:07:00;;;;;;;86.90;42.17;;;0.80;99.90;;;;;;6275536;22;20011;-83
2022/03/03 02:09:26;;;;;;;87.15;43.03;;;0.80;99.90;;;;;;6277545;22;20395;-80
2022/03/03 02:11:52;;;;;;;87.35;43.95;;;0.70;99.90;;;;;;6252416;22;20019;-81
2022/03/03 02:14:18;;;;;;;86.13;42.65;;;0.70;99.90;;;;;;6303754;22;20007;-82
2022/03/03 02:16:44;;;;;;;85.78;42.00;;;0.60;99.90;;;;;;6251733;22;20011;-78
2022/03/03 02:19:17;;;;;;;86.00;43.53;;;0.60;99.90;;;;;;6251957;22;20015;-80
2022/03/03 02:21:52;;;;;;;88.10;42.83;;;0.60;99.90;;;;;;6277958;22;20011;-81
2022/03/03 02:24:20;;;;;;;;;;;0.50;99.90;;;;;;6278359;22;20016;-80
2022/03/03 02:26:46;;;;;;;79.97;40.65;;;1.00;99.90;;;;;;6251935;22;20207;-78
2022/03/03 02:29:12;;;;;;;86.18;41.83;;;0.50;99.90;;;;;;6275770;22;20034;-79
2022/03/03 02:31:39;;;;;;;89.40;43.60;;;0.50;99.90;;;;;;6276487;22;20015;-81
2022/03/03 02:34:04;;;;;;;84.45;42.22;;;0.40;99.90;;;;;;6277555;22;20015;-80
2022/03/03 02:36:30;;;;;;;83.82;43.17;;;0.90;99.90;;;;;;6252734;22;20038;-78
2022/03/03 02:38:58;;;;;;;86.45;43.25;;;0.40;99.90;;;;;;6277400;22;20015;-82
2022/03/03 02:41:25;;;;;;;85.85;40.72;;;0.40;99.90;;;;;;6277694;22;20156;-83
2022/03/03 02:43:51;;;;;;;80.72;41.97;;;0.40;99.90;;;;;;6276640;22;20335;-80
2022/03/03 02:46:17;;;;;;;87.90;43.70;;;0.40;99.90;;;;;;6252739;22;20011;-82
2022/03/03 02:48:46;;;;;;;87.13;42.47;;;0.40;99.90;;;;;;6278026;22;20012;-82
2022/03/03 02:51:12;;;;;;;85.53;42.75;;;0.30;99.90;;;;;;6251713;22;20503;-81
2022/03/03 02:53:38;;;;;;;83.63;41.00;;;0.40;99.90;;;;;;6250810;22;20007;-78
2022/03/03 02:56:05;;;;;;;84.05;40.25;;;0.30;99.90;;;;;;6251749;22;20394;-77
2022/03/03 02:58:32;;;;;;;88.40;41.83;;;0.30;99.90;;;;;;6250838;22;20330;-78
2022/03/03 03:00:58;;;;;;;82.93;42.47;;;0.20;99.90;;;;;;6251042;22;20503;-77
2022/03/03 03:03:24;;;;;;;80.43;40.45;;;0.20;99.90;;;;;;6250369;22;20050;-79
2022/03/03 03:05:50;;;;;;;83.40;42.38;;;0.20;99.90;;;;;;6277115;22;20015;-80
2022/03/03 03:08:16;;;;;;;86.97;41.78;;;0.10;99.90;;;;;;6251749;22;20011;-79
2022/03/03 03:10:42;;;;;;;83.18;42.10;;;0.00;99.90;;;;;;6276005;22;20085;-80
2022/03/03 03:13:12;;;;;;;84.97;41.60;;;0.10;99.90;;;;;;6250754;22;20050;-80
2022/03/03 03:15:38;;;;;;;91.38;41.65;;;0.10;99.90;;;;;;6253212;22;20007;-79
2022/03/03 03:18:18;;;;;;;78.57;41.20;;;0.00;99.90;;;;;;6277455;22;20017;-79
2022/03/03 03:20:51;;;;;;;91.10;40.38;;;0.00;99.90;;;;;;6252138;22;20016;-80
2022/03/03 03:23:20;;;;;;;87.80;41.92;;;0.00;99.90;;;;;;6251617;22;20075;-80
2022/03/03 03:25:47;;;;;;;82.82;38.60;;;0.10;99.90;;;;;;6226018;22;20094;-80
2022/03/03 03:28:18;;;;;;;85.82;42.35;;;0.30;99.90;;;;;;6276182;22;20018;-81
2022/03/03 03:30:45;;;;;;;81.88;40.00;;;0.40;99.90;;;;;;6277214;22;20118;-80
2022/03/03 03:33:10;;;;;;;85.35;42.17;;;0.40;99.90;;;;;;6251538;22;20018;-83
2022/03/03 03:35:36;;;;;;;87.35;42.25;;;0.30;99.90;;;;;;6277530;22;20011;-80
2022/03/03 03:38:03;;;;;;;87.32;42.35;;;0.40;99.90;;;;;;6304650;22;20019;-79
2022/03/03 03:40:29;;;;;;;73.47;37.30;;;0.50;99.90;;;;;;6305054;22;20010;-79
2022/03/03 03:42:56;;;;;;;84.72;41.45;;;0.40;99.90;;;;;;6277229;22;20052;-79
2022/03/03 03:45:21;;;;;;;86.05;41.83;;;0.50;99.90;;;;;;6275810;22;20012;-80
2022/03/03 03:47:47;;;;;;;79.43;41.45;;;0.50;99.90;;;;;;6251487;22;20026;-78
2022/03/03 03:50:13;;;;;;;84.55;41.58;;;0.60;99.90;;;;;;6276926;22;20011;-79
2022/03/03 03:52:40;;;;;;;81.75;39.17;;;0.60;99.90;;;;;;6252273;22;20011;-82
2022/03/03 03:55:08;;;;;;;84.38;41.88;;;0.60;99.90;;;;;;6276628;22;20011;-79
2022/03/03 03:57:35;;;;;;;76.45;37.38;;;0.60;99.90;;;;;;6251815;22;20019;-81
2022/03/03 04:00:05;;;;;;;82.32;40.17;;;0.60;99.90;;;;;;6276400;22;20072;-81
2022/03/03 04:02:30;;;;;;;79.07;39.65;;;0.60;99.90;;;;;;6277892;22;20018;-80
2022/03/03 04:04:56;;;;;;;81.43;38.47;;;0.60;99.90;;;;;;6277657;22;20435;-78
2022/03/03 04:07:22;;;;;;;81.85;41.33;;;0.90;99.90;;;;;;6251796;22;20101;-80
2022/03/03 04:09:48;;;;;;;70.57;39.72;;;0.60;99.90;;;;;;6276935;22;20098;-78
2022/03/03 04:12:13;;;;;;;77.25;38.92;;;0.70;99.90;;;;;;6277284;22;20054;-82
2022/03/03 04:14:39;;;;;;;77.40;40.25;;;0.70;99.90;;;;;;6275543;22;20015;-79
2022/03/03 04:17:05;;;;;;;73.60;39.55;;;0.60;99.90;;;;;;6277235;22;20038;-80
2022/03/03 04:19:30;;;;;;;68.28;35.70;;;0.60;99.90;;;;;;6276664;22;20102;-81
2022/03/03 04:21:56;;;;;;;71.50;37.15;;;0.60;99.90;;;;;;6251413;22;20015;-79
2022/03/03 04:24:22;;;;;;;62.13;34.25;;;0.60;99.90;;;;;;6251247;22;20046;-80
2022/03/03 04:26:47;;;;;;;63.78;35.03;;;0.70;99.90;;;;;;6278057;22;20082;-81
2022/03/03 04:29:13;;;;;;;62.97;34.60;;;0.70;99.90;;;;;;6276193;22;20090;-78
2022/03/03 04:31:38;;;;;;;66.47;34.63;;;0.70;99.90;;;;;;6276985;22;20022;-78
2022/03/03 04:34:04;;;;;;;66.05;32.17;;;0.80;99.90;;;;;;6276806;22;20019;-81
2022/03/03 04:36:30;;;;;;;71.10;36.20;;;0.80;99.90;;;;;;6276442;22;20301;-80
2022/03/03 04:38:55;;;;;;;63.90;36.42;;;0.70;99.90;;;;;;6277213;22;20019;-83
2022/03/03 04:41:21;;;;;;;71.55;34.63;;;0.70;99.90;;;;;;6277153;22;20072;-81
2022/03/03 04:43:47;;;;;;;64.88;34.78;;;0.60;99.90;;;;;;6275564;22;20021;-78
2022/03/03 04:46:13;;;;;;;66.72;35.53;;;0.60;99.90;;;;;;6251361;22;20033;-79
2022/03/03 04:48:38;;;;;;;64.05;34.10;;;0.70;99.90;;;;;;6251062;22;20022;-79
2022/03/03 04:51:04;;;;;;;62.28;33.33;;;0.60;99.90;;;;;;6277125;22;20026;-82
2022/03/03 04:53:30;;;;;;;63.78;34.75;;;0.60;99.90;;;;;;6250625;22;20015;-81
2022/03/03 04:55:57;;;;;;;59.85;33.33;;;0.60;99.90;;;;;;6277314;22;20048;-81
2022/03/03 04:58:24;;;;;;;63.42;34.75;;;0.50;99.90;;;;;;6250706;22;20022;-79
2022/03/03 05:00:50;;;;;;;57.58;32.20;;;0.60;99.90;;;;;;6251907;22;20017;-78
2022/03/03 05:03:16;;;;;;;60.78;32.05;;;0.50;99.90;;;;;;6251606;22;20042;-82
2022/03/03 05:05:42;;;;;;;64.70;34.58;;;0.40;99.90;;;;;;6250676;22;20015;-80
2022/03/03 05:08:08;;;;;;;66.80;33.90;;;0.30;99.90;;;;;;6276614;22;20320;-79
2022/03/03 05:10:34;;;;;;;64.18;35.28;;;0.40;99.90;;;;;;6277115;22;20015;-83
2022/03/03 05:13:01;;;;;;;63.65;34.15;;;0.20;99.90;;;;;;6251519;22;20076;-83
2022/03/03 05:15:27;;;;;;;63.28;34.22;;;0.30;99.90;;;;;;6276837;22;20089;-80
2022/03/03 05:17:53;;;;;;;68.72;36.05;;;0.20;99.90;;;;;;6278406;22;20019;-80
2022/03/03 05:20:18;;;;;;;65.07;34.15;;;0.20;99.90;;;;;;6253352;22;20011;-80
2022/03/03 05:22:44;;;;;;;66.25;34.65;;;0.20;99.90;;;;;;6253442;22;20011;-80
2022/03/03 05:25:10;;;;;;;64.38;34.58;;;0.20;99.90;;;;;;6279317;22;20027;-81
2022/03/03 05:27:37;;;;;;;61.17;33.22;;;0.20;99.90;;;;;;6252838;22;20408;-78
2022/03/03 05:30:03;;;;;;;60.17;34.72;;;0.10;99.90;;;;;;6252171;22;20061;-80
2022/03/03 05:32:29;;;;;;;65.30;34.40;;;0.10;99.90;;;;;;6278900;22;20026;-79
2022/03/03 05:34:55;;;;;;;66.03;35.17;;;0.00;99.90;;;;;;6278449;22;20280;-80
2022/03/03 05:37:22;;;;;;;65.00;34.95;;;-0.10;99.90;;;;;;6278836;22;20007;-83
2022/03/03 05:39:48;;;;;;;60.50;33.78;;;-0.10;99.90;;;;;;6279421;22;20326;-78
2022/03/03 05:42:14;;;;;;;62.17;34.28;;;-0.20;99.90;;;;;;6253383;22;20094;-83
2022/03/03 05:44:41;;;;;;;63.92;35.80;;;-0.20;99.90;;;;;;6277742;22;20012;-81
2022/03/03 05:47:07;;;;;;;64.63;34.38;;;-0.30;99.90;;;;;;6278774;22;20441;-81
2022/03/03 05:49:33;;;;;;;67.05;35.65;;;-0.20;99.90;;;;;;6253321;22;20007;-78
2022/03/03 05:51:59;;;;;;;63.90;35.15;;;-0.40;99.90;;;;;;6278842;22;20018;-82
2022/03/03 05:54:24;;;;;;;60.40;33.22;;;-0.40;99.90;;;;;;6278480;22;20007;-82
2022/03/03 05:56:52;;;;;;;63.28;33.53;;;-0.40;99.90;;;;;;6278120;22;20008;-80
2022/03/03 05:59:21;;;;;;;66.05;35.10;;;-0.50;99.90;;;;;;6276918;22;20046;-78
2022/03/03 06:01:47;;;;;;;64.45;35.05;;;-0.50;99.90;;;;;;6253281;22;20312;-79
2022/03/03 06:04:15;;;;;;;59.83;34.03;;;-0.60;99.90;;;;;;6252542;22;20018;-81
2022/03/03 06:06:54;;;;;;;62.28;34.22;;;-0.60;99.90;;;;;;6279035;22;20015;-80
2022/03/03 06:09:24;;;;;;;70.85;34.35;;;-0.60;99.90;;;;;;6277790;22;20026;-80
2022/03/03 06:12:04;;;;;;;71.13;34.78;;;-0.70;99.90;;;;;;6278701;22;20016;-80
2022/03/03 06:14:39;;;;;;;62.97;33.42;;;-0.70;99.90;;;;;;6278640;22;20008;-81
2022/03/03 06:17:05;;;;;;;64.60;34.90;;;-0.80;99.90;;;;;;6252389;22;20047;-78
2022/03/03 06:19:39;;;;;;;64.53;34.05;;;-0.70;99.90;;;;;;6278531;22;20362;-81
2022/03/03 06:22:06;;;;;;;70.82;35.63;;;-0.80;99.90;;;;;;6279017;22;20106;-80
2022/03/03 06:24:32;;;;;;;64.45;35.85;;;-0.70;99.90;;;;;;6252626;22;20019;-77
2022/03/03 06:26:58;;;;;;;72.50;35.55;;;-0.70;99.90;;;;;;6253124;22;20015;-82
2022/03/03 06:29:24;;;;;;;66.55;35.95;;;-0.60;99.90;;;;;;6251090;22;20011;-80
2022/03/03 06:31:49;;;;;;;58.40;30.42;;;-0.60;99.90;;;;;;6252892;22;20049;-81
2022/03/03 06:34:16;;;;;;;63.85;32.83;;;-0.40;99.90;;;;;;6277102;22;20007;-78
2022/03/03 06:36:42;;;;;;;62.45;34.88;;;-0.30;99.90;;;;;;6252077;22;20481;-80
2022/03/03 06:39:07;;;;;;;72.65;35.17;;;-0.20;99.90;;;;;;6251063;22;20051;-77
2022/03/03 06:41:33;;;;;;;58.80;30.38;;;-0.10;99.90;;;;;;6277709;22;20015;-83
2022/03/03 06:43:59;;;;;;;61.25;30.80;;;0.90;99.90;;;;;;6251214;22;20015;-80
2022/03/03 06:46:25;;;;;;;68.18;32.70;;;0.30;99.90;;;;;;6303942;22;20015;-82
2022/03/03 06:48:50;;;;;;;66.13;34.88;;;0.20;99.90;;;;;;6251246;22;20404;-79
2022/03/03 06:51:17;;;;;;;66.25;34.45;;;1.10;99.90;;;;;;6251416;22;20022;-80
2022/03/03 06:53:45;;;;;;;68.43;35.70;;;0.60;99.90;;;;;;6250815;22;20015;-80
2022/03/03 06:56:14;;;;;;;77.53;36.08;;;0.20;99.90;;;;;;6251272;22;20007;-83
2022/03/03 06:58:40;;;;;;;74.55;38.28;;;0.30;99.90;;;;;;6304084;22;20088;-84
2022/03/03 07:01:08;;;;;;;75.40;38.00;;;0.30;99.90;;;;;;6303808;22;20011;-84
2022/03/03 07:03:35;;;;;;;66.82;35.88;;;1.00;99.90;;;;;;6250015;22;20017;-80
2022/03/03 07:06:02;;;;;;;74.47;37.95;;;0.50;99.90;;;;;;6250749;22;20689;-79
2022/03/03 07:08:27;;;;;;;68.63;34.33;;;0.40;99.90;;;;;;6251161;22;20052;-79
2022/03/03 07:10:55;;;;;;;72.57;36.53;;;0.40;99.90;;;;;;6251368;22;20062;-80
2022/03/03 07:13:24;;;;;;;74.45;37.13;;;0.40;99.90;;;;;;6250554;22;20125;-83
2022/03/03 07:15:55;;;;;;;71.32;37.75;;;1.10;99.90;;;;;;6251175;22;20102;-83
2022/03/03 07:18:41;;;;;;;72.28;36.17;;;0.40;99.90;;;;;;6275679;22;20084;-80
2022/03/03 07:21:43;;;;;;;68.60;31.17;;;0.40;99.90;;;;;;6251251;22;20015;-86
2022/03/03 07:24:47;;;;;;;70.32;35.33;;;0.50;99.90;;;;;;6276370;22;20094;-83
2022/03/03 07:27:23;;;;;;;70.10;35.95;;;0.20;99.90;;;;;;6277199;22;20094;-83
2022/03/03 07:30:00;;;;;;;71.18;38.05;;;0.80;99.90;;;;;;6251467;22;20022;-81
2022/03/03 07:32:38;;;;;;;74.00;37.80;;;0.60;99.90;;;;;;6277873;22;20019;-83
2022/03/03 07:35:12;;;;;;;80.93;38.78;;;0.70;99.90;;;;;;6278228;22;20007;-81
2022/03/03 07:38:05;;;;;;;69.32;37.47;;;0.70;99.90;;;;;;6277806;22;20054;-81
2022/03/03 07:40:32;;;;;;;76.40;38.40;;;0.80;99.90;;;;;;6251767;22;20314;-84
2022/03/03 07:42:59;;;;;;;78.40;38.22;;;0.70;99.90;;;;;;6252008;22;20038;-80
2022/03/03 07:45:26;;;;;;;78.80;36.45;;;0.80;99.90;;;;;;6249536;22;20011;-84
2022/03/03 07:47:57;;;;;;;68.95;37.38;;;0.90;99.90;;;;;;6275577;22;20015;-83
2022/03/03 07:50:24;;;;;;;76.07;39.03;;;0.90;99.90;;;;;;6276096;22;20008;-84
2022/03/03 07:52:51;;;;;;;74.03;38.75;;;0.90;99.90;;;;;;6250925;22;20535;-82
2022/03/03 07:55:17;;;;;;;77.90;38.38;;;1.00;99.90;;;;;;6250662;22;20011;-84
2022/03/03 07:57:53;;;;;;;70.57;39.28;;;1.00;99.90;;;;;;6275365;22;20084;-82
2022/03/03 08:00:20;;;;;;;70.18;37.28;;;1.10;99.90;;;;;;6274908;22;20022;-84
2022/03/03 08:02:50;;;;;;;71.07;36.42;;;1.20;99.90;;;;;;6276443;22;20746;-83
2022/03/03 08:05:16;;;;;;;70.32;36.90;;;1.20;99.90;;;;;;6250732;22;20022;-85
2022/03/03 08:07:45;;;;;;;61.28;33.08;;;2.10;99.90;;;;;;6250350;22;20559;-81
2022/03/03 08:10:13;;;;;;;68.93;37.30;;;1.40;99.90;;;;;;6249504;22;20019;-81
2022/03/03 08:12:41;;;;;;;62.92;32.50;;;1.50;99.90;;;;;;6250049;22;20096;-81
2022/03/03 08:15:08;;;;;;;73.43;35.88;;;2.10;99.90;;;;;;6248493;22;20012;-81
2022/03/03 08:17:36;;;;;;;62.80;33.58;;;1.90;99.90;;;;;;6276019;22;20107;-81
2022/03/03 08:20:08;;;;;;;68.90;36.10;;;1.90;99.90;;;;;;6276094;22;20096;-81
2022/03/03 08:22:37;;;;;;;62.50;31.90;;;2.10;99.90;;;;;;6224986;22;20094;-78
2022/03/03 08:25:06;;;;;;;61.53;29.23;;;2.10;99.90;;;;;;6250113;22;20019;-81
2022/03/03 08:27:32;;;;;;;62.58;34.75;;;2.10;99.90;;;;;;6250611;22;20050;-80
2022/03/03 08:30:00;;;;;;;56.28;31.50;;;2.20;99.90;;;;;;6275290;22;20018;-82
2022/03/03 08:32:31;;;;;;;58.75;32.47;;;2.80;99.90;;;;;;6250703;22;20022;-79
2022/03/03 08:35:12;;;;;;;60.03;32.60;;;2.60;99.90;;;;;;6275674;22;20072;-80
2022/03/03 08:37:40;;;;;;;57.80;30.27;;;2.50;99.90;;;;;;6251404;22;20486;-82
2022/03/03 08:40:09;;;;;;;52.88;30.35;;;2.50;99.90;;;;;;6249030;22;20562;-78
2022/03/03 08:42:37;;;;;;;57.63;30.13;;;2.60;99.90;;;;;;6275385;22;20062;-78
2022/03/03 08:45:06;;;;;;;65.18;30.48;;;2.60;99.90;;;;;;6249593;22;20026;-78
2022/03/03 08:47:33;;;;;;;55.42;30.08;;;2.60;99.90;;;;;;6250619;22;20342;-77
2022/03/03 08:50:09;;;;;;;58.42;30.90;;;2.70;99.90;;;;;;6251584;22;20007;-82
2022/03/03 08:52:38;;;;;;;49.97;27.60;;;2.80;99.90;;;;;;6276979;22;20019;-79
2022/03/03 08:55:06;;;;;;;57.33;31.25;;;2.80;99.90;;;;;;6276947;22;20022;-82
2022/03/03 08:57:35;;;;;;;54.72;29.25;;;2.90;99.90;;;;;;6253128;22;20026;-83
2022/03/03 09:00:01;;;;;;;50.72;29.70;;;3.00;99.90;;;;;;6277572;22;20023;-78
2022/03/03 09:02:26;;;;;;;49.50;27.48;;;3.20;99.90;;;;;;6280150;22;20470;-79
2022/03/03 09:04:52;;;;;;;52.97;30.00;;;3.10;99.90;;;;;;6278438;22;20023;-80
2022/03/03 09:07:18;;;;;;;50.80;29.10;;;3.20;99.90;;;;;;6278004;22;20007;-81
2022/03/03 09:09:44;;;;;;;46.97;26.95;;;3.30;99.90;;;;;;6252068;22;20331;-77
2022/03/03 09:12:09;;;;;;;55.33;28.90;;;3.40;99.90;;;;;;6279160;22;20093;-83
2022/03/03 09:14:35;;;;;;;50.72;27.75;;;3.50;99.90;;;;;;6276951;22;20089;-79
2022/03/03 09:17:01;;;;;;;48.95;25.10;;;3.60;99.90;;;;;;6252622;22;20050;-79
2022/03/03 09:19:27;;;;;;;48.22;27.95;;;3.70;99.90;;;;;;6276835;22;20072;-85
2022/03/03 09:21:53;;;;;;;54.53;29.38;;;3.70;99.90;;;;;;6275745;22;20027;-85
2022/03/03 09:24:18;;;;;;;50.30;29.23;;;4.00;99.90;;;;;;6276775;22;20061;-83
2022/03/03 09:26:44;;;;;;;53.40;29.60;;;4.00;99.90;;;;;;6276455;22;20046;-79
2022/03/03 09:29:10;;;;;;;52.47;29.20;;;4.00;99.90;;;;;;6276432;22;20293;-85
2022/03/03 09:31:35;;;;;;;52.05;29.92;;;4.00;99.90;;;;;;6275087;22;20011;-79
2022/03/03 09:34:01;;;;;;;51.83;29.13;;;4.10;99.90;;;;;;6277928;22;20090;-78
2022/03/03 09:36:27;;;;;;;51.38;29.48;;;4.20;99.90;;;;;;6283961;22;20022;-80
2022/03/03 09:38:52;;;;;;;51.78;31.17;;;4.30;99.90;;;;;;6253266;22;20117;-82
2022/03/03 09:41:24;;;;;;;52.58;29.40;;;4.30;99.90;;;;;;6253277;22;20049;-81
2022/03/03 09:43:50;;;;;;;48.92;27.55;;;4.20;99.90;;;;;;6254138;22;20124;-78
2022/03/03 09:46:15;;;;;;;46.88;27.20;;;4.40;99.90;;;;;;6277876;22;20158;-81
2022/03/03 09:48:41;;;;;;;47.53;28.60;;;4.40;99.90;;;;;;6277491;22;20015;-83
2022/03/03 09:51:07;;;;;;;46.88;27.60;;;4.50;99.90;;;;;;6277902;22;20091;-86
2022/03/03 09:53:33;;;;;;;48.78;27.00;;;4.70;99.90;;;;;;6277811;22;20023;-78
2022/03/03 09:55:59;;;;;;;43.92;26.30;;;4.70;99.90;;;;;;6277939;22;20026;-78
2022/03/03 09:58:25;;;;;;;40.20;22.40;;;4.80;99.90;;;;;;6276286;22;20015;-82
2022/03/03 10:00:51;;;;;;;40.90;25.63;;;5.00;99.90;;;;;;6277855;22;20378;-82
2022/03/03 10:03:18;;;;;;;45.13;25.35;;;5.10;99.90;;;;;;6277410;22;20447;-80
2022/03/03 10:05:47;;;;;;;43.42;22.27;;;5.10;99.90;;;;;;6250381;22;20019;-81
2022/03/03 10:08:35;;;;;;;32.72;20.70;;;5.30;99.90;;;;;;6251747;22;20050;-83
2022/03/03 10:11:04;;;;;;;32.30;18.58;;;5.50;99.90;;;;;;6251191;22;20023;-81
2022/03/03 10:13:47;;;;;;;29.58;18.90;;;5.60;99.90;;;;;;6276130;22;20420;-77
2022/03/03 10:16:20;;;;;;;31.35;19.05;;;5.80;99.90;;;;;;6278065;22;20007;-79
2022/03/03 10:18:53;;;;;;;37.08;21.15;;;5.90;99.90;;;;;;6276690;22;20076;-79
2022/03/03 10:21:20;;;;;;;28.15;18.42;;;6.10;99.90;;;;;;6251499;22;20019;-78
2022/03/03 10:23:45;;;;;;;33.15;18.58;;;6.30;99.90;;;;;;6251473;22;20113;-78
2022/03/03 10:26:11;;;;;;;29.63;18.60;;;6.40;99.90;;;;;;6277737;22;20023;-81
2022/03/03 10:28:38;;;;;;;27.52;18.17;;;6.60;99.90;;;;;;6276474;22;20014;-77
2022/03/03 10:31:08;;;;;;;33.83;18.80;;;6.80;99.90;;;;;;6277440;22;20081;-81
2022/03/03 10:33:37;;;;;;;32.17;18.65;;;6.90;99.90;;;;;;6278065;22;20862;-81
2022/03/03 10:36:21;;;;;;;31.65;18.92;;;7.40;99.90;;;;;;6278121;22;20439;-80
2022/03/03 10:38:57;;;;;;;29.63;17.73;;;7.20;99.90;;;;;;6277539;22;20339;-82
2022/03/03 10:41:42;;;;;;;32.15;19.10;;;7.40;99.90;;;;;;6276222;22;20023;-79
2022/03/03 10:44:30;;;;;;;29.27;19.25;;;7.50;99.90;;;;;;6275509;22;20309;-79
2022/03/03 10:47:09;;;;;;;34.53;20.10;;;7.60;99.90;;;;;;6277034;22;20027;-80
2022/03/03 10:49:38;;;;;;;29.75;19.98;;;7.90;99.90;;;;;;6252056;22;20083;-79
2022/03/03 10:52:19;;;;;;;31.50;20.35;;;7.90;99.90;;;;;;6277955;22;20050;-80
2022/03/03 10:54:51;;;;;;;35.30;21.50;;;8.10;99.90;;;;;;6277360;22;20100;-82
2022/03/03 10:57:42;;;;;;;29.13;19.55;;;8.30;99.90;;;;;;6278333;22;20018;-81
2022/03/03 11:00:18;;;;;;;31.98;20.48;;;8.50;99.90;;;;;;6303206;22;20446;-83
2022/03/03 11:02:47;;;;;;;28.80;19.42;;;8.80;99.90;;;;;;6277617;22;20326;-83
2022/03/03 11:05:14;;;;;;;32.10;19.80;;;8.90;99.90;;;;;;6277584;22;20054;-80
2022/03/03 11:07:43;;;;;;;28.35;18.02;;;9.10;99.90;;;;;;6251614;22;20038;-81
2022/03/03 11:10:12;;;;;;;28.52;17.00;;;9.10;99.90;;;;;;6251475;22;20019;-78
2022/03/03 11:12:40;;;;;;;25.95;18.48;;;9.30;99.90;;;;;;6251903;22;20091;-81
2022/03/03 11:15:06;;;;;;;25.55;17.42;;;9.20;99.90;;;;;;6250778;22;20011;-81
2022/03/03 11:17:33;;;;;;;27.58;18.45;;;9.20;99.90;;;;;;6276792;22;20053;-80
2022/03/03 11:19:59;;;;;;;27.73;19.25;;;9.40;99.90;;;;;;6251679;22;20052;-80
2022/03/03 11:22:31;;;;;;;28.33;18.77;;;9.50;99.90;;;;;;6278524;22;20079;-82
2022/03/03 11:24:58;;;;;;;29.55;18.33;;;9.70;99.90;;;;;;6306125;22;20101;-81
2022/03/03 11:27:35;;;;;;;28.40;17.80;;;9.70;99.90;;;;;;6278516;22;20019;-80
2022/03/03 11:30:28;;;;;;;29.33;17.63;;;9.80;99.90;;;;;;6277553;22;20015;-82
2022/03/03 11:33:21;;;;;;;27.05;15.45;;;9.90;99.90;;;;;;6278408;22;20018;-83
2022/03/03 11:35:56;;;;;;;25.98;18.02;;;9.90;99.90;;;;;;6277427;22;20454;-81
2022/03/03 11:38:23;;;;;;;31.10;20.02;;;9.90;99.90;;;;;;6251419;22;20081;-79
2022/03/03 11:41:03;;;;;;;29.45;20.63;;;10.00;99.90;;;;;;6277724;22;20065;-82
2022/03/03 11:43:47;;;;;;;30.52;20.17;;;9.80;99.90;;;;;;6225462;22;20377;-79
2022/03/03 11:46:13;;;;;;;29.73;20.63;;;10.00;99.90;;;;;;6278580;22;20461;-79
2022/03/03 11:48:39;;;;;;;26.92;20.40;;;9.90;99.90;;;;;;6277764;22;20026;-81
2022/03/03 11:51:34;;;;;;;31.17;20.58;;;10.00;99.90;;;;;;6250625;22;20090;-82
2022/03/03 11:54:11;;;;;;;27.38;19.13;;;10.20;99.90;;;;;;6276228;22;20011;-80
2022/03/03 11:57:06;;;;;;;26.25;18.00;;;10.40;99.90;;;;;;6251433;22;20026;-78
2022/03/03 11:59:42;;;;;;;30.13;19.83;;;10.70;99.90;;;;;;6249882;22;20442;-84
2022/03/03 12:02:08;;;;;;;29.35;19.48;;;10.50;99.90;;;;;;6250927;22;20050;-84
2022/03/03 12:04:37;;;;;;;29.08;18.58;;;10.50;99.90;;;;;;6275519;22;20030;-84
2022/03/03 12:07:03;;;;;;;24.15;16.67;;;10.60;99.90;;;;;;6250435;22;20066;-78
2022/03/03 12:09:32;;;;;;;25.25;18.85;;;10.70;99.90;;;;;;6275532;22;20016;-80
2022/03/03 12:12:11;;;;;;;30.20;17.55;;;10.90;99.90;;;;;;6249490;22;20086;-82
2022/03/03 12:14:39;;;;;;;24.42;16.95;;;10.90;99.90;;;;;;6249283;22;20090;-83
2022/03/03 12:17:35;;;;;;;25.05;17.90;;;11.00;99.90;;;;;;6251444;22;20011;-78
2022/03/03 12:20:37;;;;;;;29.38;18.88;;;10.80;99.90;;;;;;6272255;22;20034;-80
2022/03/03 12:23:07;;;;;;;28.85;18.63;;;11.10;99.90;;;;;;6250128;22;20473;-79
2022/03/03 12:25:54;;;;;;;29.92;19.48;;;10.90;99.90;;;;;;6250268;22;20019;-77
2022/03/03 12:28:21;;;;;;;26.45;20.02;;;11.50;99.90;;;;;;6276936;22;20033;-77
2022/03/03 12:30:48;;;;;;;28.17;19.30;;;11.10;99.90;;;;;;6252507;22;20015;-80
2022/03/03 12:33:31;;;;;;;25.70;16.58;;;11.50;99.90;;;;;;6277701;22;20008;-79
2022/03/03 12:36:03;;;;;;;28.83;19.30;;;11.50;99.90;;;;;;6252786;22;20015;-80
2022/03/03 12:38:29;;;;;;;27.20;18.10;;;11.60;99.90;;;;;;6278481;22;20015;-81
2022/03/03 12:40:55;;;;;;;23.95;17.50;;;11.50;99.90;;;;;;6278420;22;20385;-80
2022/03/03 12:43:21;;;;;;;31.58;19.67;;;12.00;99.90;;;;;;6252626;22;20462;-80